Cromberg, California
Current Conditions -  °F | °C
As of 7:52 AM on Thursday 27 Nov 2014 (Local Time) from KBLU Reporting Station
Clear Clear  
Wind Chill: 55°   Ceiling: Unl
Heat Index: 55°   Visibility: 10mi
Dew Point: 20°   Wind: 7mph
Humidity: 25%   Direction: 140°SE
Pressure: 30.32"   Gusts: NA
Location:  39.7722°N, 120.711°W
Report Text: KBLU 271552Z AUTO 14006KT 10SM CLR 13/M07 A3032 RMK AO2 SLP210 T01281067
Loading
Personal Weather Stations






























Interactive Weather Map New forecast layout! Learn more

10-Day Weather Forecast

Advertisements
Track Severe Weather on mobile